sensor_id;sensor_type;location;lat;lon;timestamp;temperature;humidity
9497;DHT22;4786;51.270;4.456;2022-07-22T00:01:48;16.60;99.90
9497;DHT22;4786;51.270;4.456;2022-07-22T00:04:14;16.60;99.90
9497;DHT22;4786;51.270;4.456;2022-07-22T00:06:40;16.60;99.90
9497;DHT22;4786;51.270;4.456;2022-07-22T00:09:06;16.50;99.90
9497;DHT22;4786;51.270;4.456;2022-07-22T00:11:32;16.50;99.90
9497;DHT22;4786;51.270;4.456;2022-07-22T00:13:58;16.40;99.90
9497;DHT22;4786;51.270;4.456;2022-07-22T00:16:24;16.30;99.90
9497;DHT22;4786;51.270;4.456;2022-07-22T00:18:50;16.30;99.90
9497;DHT22;4786;51.270;4.456;2022-07-22T00:21:15;16.40;99.90
9497;DHT22;4786;51.270;4.456;2022-07-22T00:23:42;16.50;99.90
9497;DHT22;4786;51.270;4.456;2022-07-22T00:26:08;16.40;99.90
9497;DHT22;4786;51.270;4.456;2022-07-22T00:28:34;16.30;99.90
9497;DHT22;4786;51.270;4.456;2022-07-22T00:31:00;16.30;99.90
9497;DHT22;4786;51.270;4.456;2022-07-22T00:33:26;16.10;99.90
9497;DHT22;4786;51.270;4.456;2022-07-22T00:35:52;16.10;99.90
9497;DHT22;4786;51.270;4.456;2022-07-22T00:38:18;16.10;99.90
9497;DHT22;4786;51.270;4.456;2022-07-22T00:40:44;16.00;99.90
9497;DHT22;4786;51.270;4.456;2022-07-22T00:43:10;16.00;99.90
9497;DHT22;4786;51.270;4.456;2022-07-22T00:45:36;16.00;99.90
9497;DHT22;4786;51.270;4.456;2022-07-22T00:48:03;16.00;99.90
9497;DHT22;4786;51.270;4.456;2022-07-22T00:50:29;16.00;99.90
9497;DHT22;4786;51.270;4.456;2022-07-22T00:52:56;15.90;99.90
9497;DHT22;4786;51.270;4.456;2022-07-22T00:55:22;15.80;99.90
9497;DHT22;4786;51.270;4.456;2022-07-22T00:57:48;15.80;99.90
9497;DHT22;4786;51.270;4.456;2022-07-22T01:00:17;15.90;99.90
9497;DHT22;4786;51.270;4.456;2022-07-22T01:02:43;16.00;99.90
9497;DHT22;4786;51.270;4.456;2022-07-22T01:05:09;16.10;99.90
9497;DHT22;4786;51.270;4.456;2022-07-22T01:07:37;16.00;99.90
9497;DHT22;4786;51.270;4.456;2022-07-22T01:10:03;15.90;99.90
9497;DHT22;4786;51.270;4.456;2022-07-22T01:12:30;15.90;99.90
9497;DHT22;4786;51.270;4.456;2022-07-22T01:14:55;15.90;99.90
9497;DHT22;4786;51.270;4.456;2022-07-22T01:17:21;15.70;99.90
9497;DHT22;4786;51.270;4.456;2022-07-22T01:19:47;15.70;99.90
9497;DHT22;4786;51.270;4.456;2022-07-22T01:22:13;15.80;99.90
9497;DHT22;4786;51.270;4.456;2022-07-22T01:24:39;15.80;99.90
9497;DHT22;4786;51.270;4.456;2022-07-22T01:27:05;15.80;99.90
9497;DHT22;4786;51.270;4.456;2022-07-22T01:29:31;15.80;99.90
9497;DHT22;4786;51.270;4.456;2022-07-22T01:31:57;15.80;99.90
9497;DHT22;4786;51.270;4.456;2022-07-22T01:34:23;15.80;99.90
9497;DHT22;4786;51.270;4.456;2022-07-22T01:36:49;15.80;99.90
9497;DHT22;4786;51.270;4.456;2022-07-22T01:39:15;15.70;99.90
9497;DHT22;4786;51.270;4.456;2022-07-22T01:41:41;15.70;99.90
9497;DHT22;4786;51.270;4.456;2022-07-22T01:44:08;15.80;99.90
9497;DHT22;4786;51.270;4.456;2022-07-22T01:46:34;15.90;99.90
9497;DHT22;4786;51.270;4.456;2022-07-22T01:49:00;15.80;99.90
9497;DHT22;4786;51.270;4.456;2022-07-22T01:51:26;15.80;99.90
9497;DHT22;4786;51.270;4.456;2022-07-22T01:53:52;15.80;99.90
9497;DHT22;4786;51.270;4.456;2022-07-22T01:56:18;15.60;99.90
9497;DHT22;4786;51.270;4.456;2022-07-22T01:58:44;15.70;99.90
9497;DHT22;4786;51.270;4.456;2022-07-22T02:01:10;15.70;99.90
9497;DHT22;4786;51.270;4.456;2022-07-22T02:03:36;15.60;99.90
9497;DHT22;4786;51.270;4.456;2022-07-22T02:06:02;15.60;99.90
9497;DHT22;4786;51.270;4.456;2022-07-22T02:08:29;15.50;99.90
9497;DHT22;4786;51.270;4.456;2022-07-22T02:10:55;15.50;99.90
9497;DHT22;4786;51.270;4.456;2022-07-22T02:13:21;15.50;99.90
9497;DHT22;4786;51.270;4.456;2022-07-22T02:15:47;15.60;99.90
9497;DHT22;4786;51.270;4.456;2022-07-22T02:18:16;15.70;99.90
9497;DHT22;4786;51.270;4.456;2022-07-22T02:20:42;15.80;99.90
9497;DHT22;4786;51.270;4.456;2022-07-22T02:23:09;15.70;99.90
9497;DHT22;4786;51.270;4.456;2022-07-22T02:25:37;15.50;99.90
9497;DHT22;4786;51.270;4.456;2022-07-22T02:28:03;15.50;99.90
9497;DHT22;4786;51.270;4.456;2022-07-22T02:30:29;15.50;99.90
9497;DHT22;4786;51.270;4.456;2022-07-22T02:32:56;15.30;99.90
9497;DHT22;4786;51.270;4.456;2022-07-22T02:35:22;15.30;99.90
9497;DHT22;4786;51.270;4.456;2022-07-22T02:37:49;15.50;99.90
9497;DHT22;4786;51.270;4.456;2022-07-22T02:40:15;15.50;99.90
9497;DHT22;4786;51.270;4.456;2022-07-22T02:42:41;15.50;99.90
9497;DHT22;4786;51.270;4.456;2022-07-22T02:45:07;15.40;99.90
9497;DHT22;4786;51.270;4.456;2022-07-22T02:47:33;15.30;99.90
9497;DHT22;4786;51.270;4.456;2022-07-22T02:49:59;15.20;99.90
9497;DHT22;4786;51.270;4.456;2022-07-22T02:52:25;15.20;99.90
9497;DHT22;4786;51.270;4.456;2022-07-22T02:54:50;15.10;99.90
9497;DHT22;4786;51.270;4.456;2022-07-22T02:57:17;15.10;99.90
9497;DHT22;4786;51.270;4.456;2022-07-22T02:59:42;15.20;99.90
9497;DHT22;4786;51.270;4.456;2022-07-22T03:02:08;15.20;99.90
9497;DHT22;4786;51.270;4.456;2022-07-22T03:04:34;15.20;99.90
9497;DHT22;4786;51.270;4.456;2022-07-22T03:06:59;15.20;99.90
9497;DHT22;4786;51.270;4.456;2022-07-22T03:09:25;15.20;99.90
9497;DHT22;4786;51.270;4.456;2022-07-22T03:11:51;15.10;99.90
9497;DHT22;4786;51.270;4.456;2022-07-22T03:14:17;15.10;99.90
9497;DHT22;4786;51.270;4.456;2022-07-22T03:16:44;15.10;99.90
9497;DHT22;4786;51.270;4.456;2022-07-22T03:19:10;15.00;99.90
9497;DHT22;4786;51.270;4.456;2022-07-22T03:21:36;15.10;99.90
9497;DHT22;4786;51.270;4.456;2022-07-22T03:24:01;15.10;99.90
9497;DHT22;4786;51.270;4.456;2022-07-22T03:26:28;15.10;99.90
9497;DHT22;4786;51.270;4.456;2022-07-22T03:28:54;14.90;99.90
9497;DHT22;4786;51.270;4.456;2022-07-22T03:31:19;15.00;99.90
9497;DHT22;4786;51.270;4.456;2022-07-22T03:33:45;15.00;99.90
9497;DHT22;4786;51.270;4.456;2022-07-22T03:36:11;15.00;99.90
9497;DHT22;4786;51.270;4.456;2022-07-22T03:38:37;15.00;99.90
9497;DHT22;4786;51.270;4.456;2022-07-22T03:41:03;15.00;99.90
9497;DHT22;4786;51.270;4.456;2022-07-22T03:43:30;15.00;99.90
9497;DHT22;4786;51.270;4.456;2022-07-22T03:45:55;15.00;99.90
9497;DHT22;4786;51.270;4.456;2022-07-22T03:48:22;15.00;99.90
9497;DHT22;4786;51.270;4.456;2022-07-22T03:50:47;15.00;99.90
9497;DHT22;4786;51.270;4.456;2022-07-22T03:53:15;15.00;99.90
9497;DHT22;4786;51.270;4.456;2022-07-22T03:55:41;15.00;99.90
9497;DHT22;4786;51.270;4.456;2022-07-22T03:58:07;15.00;99.90
9497;DHT22;4786;51.270;4.456;2022-07-22T04:00:34;15.00;99.90
9497;DHT22;4786;51.270;4.456;2022-07-22T04:03:00;15.00;99.90
9497;DHT22;4786;51.270;4.456;2022-07-22T04:05:26;15.00;99.90
9497;DHT22;4786;51.270;4.456;2022-07-22T04:07:52;15.00;99.90
9497;DHT22;4786;51.270;4.456;2022-07-22T04:10:18;15.00;99.90
9497;DHT22;4786;51.270;4.456;2022-07-22T04:12:44;15.00;99.90
9497;DHT22;4786;51.270;4.456;2022-07-22T04:15:09;15.10;99.90
9497;DHT22;4786;51.270;4.456;2022-07-22T04:17:36;15.10;99.90
9497;DHT22;4786;51.270;4.456;2022-07-22T04:20:02;15.10;99.90
9497;DHT22;4786;51.270;4.456;2022-07-22T04:22:28;15.00;99.90
9497;DHT22;4786;51.270;4.456;2022-07-22T04:24:55;15.00;99.90
9497;DHT22;4786;51.270;4.456;2022-07-22T04:27:21;15.10;99.90
9497;DHT22;4786;51.270;4.456;2022-07-22T04:29:47;15.10;99.90
9497;DHT22;4786;51.270;4.456;2022-07-22T04:32:13;15.10;99.90
9497;DHT22;4786;51.270;4.456;2022-07-22T04:34:39;15.20;99.90
9497;DHT22;4786;51.270;4.456;2022-07-22T04:37:05;15.20;99.90
9497;DHT22;4786;51.270;4.456;2022-07-22T04:39:30;15.20;99.90
9497;DHT22;4786;51.270;4.456;2022-07-22T04:41:56;15.20;99.90
9497;DHT22;4786;51.270;4.456;2022-07-22T04:44:22;15.20;99.90
9497;DHT22;4786;51.270;4.456;2022-07-22T04:46:48;15.30;99.90
9497;DHT22;4786;51.270;4.456;2022-07-22T04:49:14;15.30;99.90
9497;DHT22;4786;51.270;4.456;2022-07-22T04:51:40;15.40;99.90
9497;DHT22;4786;51.270;4.456;2022-07-22T04:54:06;15.50;99.90
9497;DHT22;4786;51.270;4.456;2022-07-22T04:56:32;15.60;99.90
9497;DHT22;4786;51.270;4.456;2022-07-22T04:58:57;15.80;99.90
9497;DHT22;4786;51.270;4.456;2022-07-22T05:01:23;15.90;99.90
9497;DHT22;4786;51.270;4.456;2022-07-22T05:03:49;15.90;99.90
9497;DHT22;4786;51.270;4.456;2022-07-22T05:06:17;16.00;99.90
9497;DHT22;4786;51.270;4.456;2022-07-22T05:08:43;16.00;99.90
9497;DHT22;4786;51.270;4.456;2022-07-22T05:11:09;16.00;99.90
9497;DHT22;4786;51.270;4.456;2022-07-22T05:13:35;16.00;99.90
9497;DHT22;4786;51.270;4.456;2022-07-22T05:16:05;16.00;99.90
9497;DHT22;4786;51.270;4.456;2022-07-22T05:18:30;16.20;99.90
9497;DHT22;4786;51.270;4.456;2022-07-22T05:20:56;16.40;99.90
9497;DHT22;4786;51.270;4.456;2022-07-22T05:23:22;16.60;99.90
9497;DHT22;4786;51.270;4.456;2022-07-22T05:25:48;17.10;99.90
9497;DHT22;4786;51.270;4.456;2022-07-22T05:28:14;17.70;99.90
9497;DHT22;4786;51.270;4.456;2022-07-22T05:30:40;18.40;99.90
9497;DHT22;4786;51.270;4.456;2022-07-22T05:33:06;19.20;99.90
9497;DHT22;4786;51.270;4.456;2022-07-22T05:35:31;20.20;99.90
9497;DHT22;4786;51.270;4.456;2022-07-22T05:37:57;21.10;99.90
9497;DHT22;4786;51.270;4.456;2022-07-22T05:40:22;22.10;99.90
9497;DHT22;4786;51.270;4.456;2022-07-22T05:42:48;23.70;99.90
9497;DHT22;4786;51.270;4.456;2022-07-22T05:45:15;24.30;99.90
9497;DHT22;4786;51.270;4.456;2022-07-22T05:47:40;24.40;99.90
9497;DHT22;4786;51.270;4.456;2022-07-22T05:50:06;24.40;99.90
9497;DHT22;4786;51.270;4.456;2022-07-22T05:52:34;24.30;99.90
9497;DHT22;4786;51.270;4.456;2022-07-22T05:55:00;24.20;99.90
9497;DHT22;4786;51.270;4.456;2022-07-22T05:57:26;24.60;99.90
9497;DHT22;4786;51.270;4.456;2022-07-22T05:59:52;25.20;99.90
9497;DHT22;4786;51.270;4.456;2022-07-22T06:02:18;25.50;99.90
9497;DHT22;4786;51.270;4.456;2022-07-22T06:04:44;25.80;99.90
9497;DHT22;4786;51.270;4.456;2022-07-22T06:07:10;26.00;99.90
9497;DHT22;4786;51.270;4.456;2022-07-22T06:09:36;26.40;99.90
9497;DHT22;4786;51.270;4.456;2022-07-22T06:12:02;27.00;99.90
9497;DHT22;4786;51.270;4.456;2022-07-22T06:14:28;27.50;99.90
9497;DHT22;4786;51.270;4.456;2022-07-22T06:16:55;27.90;99.90
9497;DHT22;4786;51.270;4.456;2022-07-22T06:19:20;28.10;99.90
9497;DHT22;4786;51.270;4.456;2022-07-22T06:21:46;28.50;99.90
9497;DHT22;4786;51.270;4.456;2022-07-22T06:24:12;28.70;99.90
9497;DHT22;4786;51.270;4.456;2022-07-22T06:26:37;29.10;99.90
9497;DHT22;4786;51.270;4.456;2022-07-22T06:29:03;29.30;99.90
9497;DHT22;4786;51.270;4.456;2022-07-22T06:31:29;29.50;99.20
9497;DHT22;4786;51.270;4.456;2022-07-22T06:33:55;29.80;99.00
9497;DHT22;4786;51.270;4.456;2022-07-22T06:36:21;30.10;98.60
9497;DHT22;4786;51.270;4.456;2022-07-22T06:38:46;30.50;98.40
9497;DHT22;4786;51.270;4.456;2022-07-22T06:41:12;30.60;98.40
9497;DHT22;4786;51.270;4.456;2022-07-22T06:43:39;31.10;96.60
9497;DHT22;4786;51.270;4.456;2022-07-22T06:46:05;31.60;95.30
9497;DHT22;4786;51.270;4.456;2022-07-22T06:48:31;31.60;93.00
9497;DHT22;4786;51.270;4.456;2022-07-22T06:50:57;31.20;92.30
9497;DHT22;4786;51.270;4.456;2022-07-22T06:53:23;30.60;93.80
9497;DHT22;4786;51.270;4.456;2022-07-22T06:55:49;30.40;96.00
9497;DHT22;4786;51.270;4.456;2022-07-22T06:58:14;30.40;95.60
9497;DHT22;4786;51.270;4.456;2022-07-22T07:00:40;30.50;93.80
9497;DHT22;4786;51.270;4.456;2022-07-22T07:03:06;30.50;94.80
9497;DHT22;4786;51.270;4.456;2022-07-22T07:05:32;30.40;93.60
9497;DHT22;4786;51.270;4.456;2022-07-22T07:07:58;30.60;94.10
9497;DHT22;4786;51.270;4.456;2022-07-22T07:10:24;30.50;93.40
9497;DHT22;4786;51.270;4.456;2022-07-22T07:12:55;30.00;93.10
9497;DHT22;4786;51.270;4.456;2022-07-22T07:15:21;29.50;93.20
9497;DHT22;4786;51.270;4.456;2022-07-22T07:17:46;29.50;95.40
9497;DHT22;4786;51.270;4.456;2022-07-22T07:20:12;29.60;94.30
9497;DHT22;4786;51.270;4.456;2022-07-22T07:22:39;29.60;94.50
9497;DHT22;4786;51.270;4.456;2022-07-22T07:25:07;29.60;94.40
9497;DHT22;4786;51.270;4.456;2022-07-22T07:27:33;29.70;93.10
9497;DHT22;4786;51.270;4.456;2022-07-22T07:29:59;29.70;93.80
9497;DHT22;4786;51.270;4.456;2022-07-22T07:32:25;29.90;94.30
9497;DHT22;4786;51.270;4.456;2022-07-22T07:34:51;29.90;93.90
9497;DHT22;4786;51.270;4.456;2022-07-22T07:37:17;29.80;94.20
9497;DHT22;4786;51.270;4.456;2022-07-22T07:39:43;29.60;93.00
9497;DHT22;4786;51.270;4.456;2022-07-22T07:42:09;29.40;92.50
9497;DHT22;4786;51.270;4.456;2022-07-22T07:44:35;29.10;93.70
9497;DHT22;4786;51.270;4.456;2022-07-22T07:47:01;28.70;93.10
9497;DHT22;4786;51.270;4.456;2022-07-22T07:49:27;28.00;93.20
9497;DHT22;4786;51.270;4.456;2022-07-22T07:51:53;27.40;95.00
9497;DHT22;4786;51.270;4.456;2022-07-22T07:54:19;26.60;95.90
9497;DHT22;4786;51.270;4.456;2022-07-22T07:56:45;26.00;96.10
9497;DHT22;4786;51.270;4.456;2022-07-22T07:59:10;25.60;97.10
9497;DHT22;4786;51.270;4.456;2022-07-22T08:01:36;25.20;98.00
9497;DHT22;4786;51.270;4.456;2022-07-22T08:04:02;25.00;99.90
9497;DHT22;4786;51.270;4.456;2022-07-22T08:06:28;24.40;98.60
9497;DHT22;4786;51.270;4.456;2022-07-22T08:08:54;24.10;99.50
9497;DHT22;4786;51.270;4.456;2022-07-22T08:11:20;24.00;99.90
9497;DHT22;4786;51.270;4.456;2022-07-22T08:13:46;23.80;99.90
9497;DHT22;4786;51.270;4.456;2022-07-22T08:16:12;23.40;99.90
9497;DHT22;4786;51.270;4.456;2022-07-22T08:18:38;23.30;99.90
9497;DHT22;4786;51.270;4.456;2022-07-22T08:21:04;23.20;99.90
9497;DHT22;4786;51.270;4.456;2022-07-22T08:23:31;23.40;99.90
9497;DHT22;4786;51.270;4.456;2022-07-22T08:25:57;23.60;99.90
9497;DHT22;4786;51.270;4.456;2022-07-22T08:28:23;23.90;99.90
9497;DHT22;4786;51.270;4.456;2022-07-22T08:30:49;24.00;99.90
9497;DHT22;4786;51.270;4.456;2022-07-22T08:33:15;23.90;99.90
9497;DHT22;4786;51.270;4.456;2022-07-22T08:35:41;23.90;99.90
9497;DHT22;4786;51.270;4.456;2022-07-22T08:38:07;23.60;99.90
9497;DHT22;4786;51.270;4.456;2022-07-22T08:40:33;23.60;99.90
9497;DHT22;4786;51.270;4.456;2022-07-22T08:43:00;23.50;99.90
9497;DHT22;4786;51.270;4.456;2022-07-22T08:45:29;23.50;99.90
9497;DHT22;4786;51.270;4.456;2022-07-22T08:47:56;23.50;99.90
9497;DHT22;4786;51.270;4.456;2022-07-22T08:50:23;23.60;99.90
9497;DHT22;4786;51.270;4.456;2022-07-22T08:52:49;23.70;99.90
9497;DHT22;4786;51.270;4.456;2022-07-22T08:55:15;23.90;99.90
9497;DHT22;4786;51.270;4.456;2022-07-22T08:57:48;23.80;99.90
9497;DHT22;4786;51.270;4.456;2022-07-22T09:00:20;24.00;99.90
9497;DHT22;4786;51.270;4.456;2022-07-22T09:02:48;24.40;99.90
9497;DHT22;4786;51.270;4.456;2022-07-22T09:05:15;24.70;99.90
9497;DHT22;4786;51.270;4.456;2022-07-22T09:07:43;24.80;99.90
9497;DHT22;4786;51.270;4.456;2022-07-22T09:10:15;24.80;99.90
9497;DHT22;4786;51.270;4.456;2022-07-22T09:12:59;24.90;99.90
9497;DHT22;4786;51.270;4.456;2022-07-22T09:15:31;24.80;99.90
9497;DHT22;4786;51.270;4.456;2022-07-22T09:17:58;24.90;99.90
9497;DHT22;4786;51.270;4.456;2022-07-22T09:20:25;25.00;99.90
9497;DHT22;4786;51.270;4.456;2022-07-22T09:22:52;24.80;99.90
9497;DHT22;4786;51.270;4.456;2022-07-22T09:25:25;24.80;99.90
9497;DHT22;4786;51.270;4.456;2022-07-22T09:28:15;24.80;99.90
9497;DHT22;4786;51.270;4.456;2022-07-22T09:30:52;24.90;99.90
9497;DHT22;4786;51.270;4.456;2022-07-22T09:33:19;24.80;99.90
9497;DHT22;4786;51.270;4.456;2022-07-22T09:35:46;24.70;99.90
9497;DHT22;4786;51.270;4.456;2022-07-22T09:38:13;24.70;99.90
9497;DHT22;4786;51.270;4.456;2022-07-22T09:40:43;24.60;99.90
9497;DHT22;4786;51.270;4.456;2022-07-22T09:43:11;24.60;99.90
9497;DHT22;4786;51.270;4.456;2022-07-22T09:46:04;24.70;99.90
9497;DHT22;4786;51.270;4.456;2022-07-22T09:48:31;24.90;99.90
9497;DHT22;4786;51.270;4.456;2022-07-22T09:50:57;25.30;99.90
9497;DHT22;4786;51.270;4.456;2022-07-22T09:53:26;25.60;99.90
9497;DHT22;4786;51.270;4.456;2022-07-22T09:55:53;25.80;99.90
9497;DHT22;4786;51.270;4.456;2022-07-22T09:58:19;26.00;99.90
9497;DHT22;4786;51.270;4.456;2022-07-22T10:00:46;26.10;99.90
9497;DHT22;4786;51.270;4.456;2022-07-22T10:03:17;26.50;99.90
9497;DHT22;4786;51.270;4.456;2022-07-22T10:05:43;26.70;99.90
9497;DHT22;4786;51.270;4.456;2022-07-22T10:08:10;26.80;99.90
9497;DHT22;4786;51.270;4.456;2022-07-22T10:10:37;26.90;99.90
9497;DHT22;4786;51.270;4.456;2022-07-22T10:13:06;26.60;99.90
9497;DHT22;4786;51.270;4.456;2022-07-22T10:15:33;26.10;99.90
9497;DHT22;4786;51.270;4.456;2022-07-22T10:18:02;26.00;99.90
9497;DHT22;4786;51.270;4.456;2022-07-22T10:20:31;25.80;99.90
9497;DHT22;4786;51.270;4.456;2022-07-22T10:23:03;25.40;99.90
9497;DHT22;4786;51.270;4.456;2022-07-22T10:25:32;25.60;99.90
9497;DHT22;4786;51.270;4.456;2022-07-22T10:28:23;25.80;99.90
9497;DHT22;4786;51.270;4.456;2022-07-22T10:30:50;26.00;99.90
9497;DHT22;4786;51.270;4.456;2022-07-22T10:33:18;26.20;99.90
9497;DHT22;4786;51.270;4.456;2022-07-22T10:36:00;26.50;99.90
9497;DHT22;4786;51.270;4.456;2022-07-22T10:38:28;26.60;99.90
9497;DHT22;4786;51.270;4.456;2022-07-22T10:41:02;26.70;99.90
9497;DHT22;4786;51.270;4.456;2022-07-22T10:43:30;26.60;99.90
9497;DHT22;4786;51.270;4.456;2022-07-22T10:46:02;26.40;99.90
9497;DHT22;4786;51.270;4.456;2022-07-22T10:58:54;26.40;99.90
9497;DHT22;4786;51.270;4.456;2022-07-22T11:01:41;26.30;99.90
9497;DHT22;4786;51.270;4.456;2022-07-22T11:06:40;25.70;99.90
9497;DHT22;4786;51.270;4.456;2022-07-22T11:09:08;25.30;99.90
9497;DHT22;4786;51.270;4.456;2022-07-22T11:11:45;25.40;99.90
9497;DHT22;4786;51.270;4.456;2022-07-22T11:14:32;25.70;99.90
9497;DHT22;4786;51.270;4.456;2022-07-22T11:17:09;26.00;99.90
9497;DHT22;4786;51.270;4.456;2022-07-22T11:19:37;26.00;99.90
9497;DHT22;4786;51.270;4.456;2022-07-22T11:22:08;26.20;99.90
9497;DHT22;4786;51.270;4.456;2022-07-22T11:24:35;26.60;99.90
9497;DHT22;4786;51.270;4.456;2022-07-22T11:27:03;26.50;99.90
9497;DHT22;4786;51.270;4.456;2022-07-22T11:29:35;26.00;99.90
9497;DHT22;4786;51.270;4.456;2022-07-22T11:32:04;26.10;99.90
9497;DHT22;4786;51.270;4.456;2022-07-22T11:34:31;25.90;99.90
9497;DHT22;4786;51.270;4.456;2022-07-22T11:36:57;26.00;99.90
9497;DHT22;4786;51.270;4.456;2022-07-22T11:39:28;26.00;99.90
9497;DHT22;4786;51.270;4.456;2022-07-22T11:41:55;26.20;99.90
9497;DHT22;4786;51.270;4.456;2022-07-22T11:44:25;26.20;99.90
9497;DHT22;4786;51.270;4.456;2022-07-22T11:46:51;26.20;99.90
9497;DHT22;4786;51.270;4.456;2022-07-22T11:49:19;26.30;99.90
9497;DHT22;4786;51.270;4.456;2022-07-22T11:51:46;26.40;99.90
9497;DHT22;4786;51.270;4.456;2022-07-22T11:54:12;26.40;99.90
9497;DHT22;4786;51.270;4.456;2022-07-22T11:56:39;26.40;99.90
9497;DHT22;4786;51.270;4.456;2022-07-22T11:59:07;26.40;99.90
9497;DHT22;4786;51.270;4.456;2022-07-22T12:01:35;26.60;99.90
9497;DHT22;4786;51.270;4.456;2022-07-22T12:04:07;26.60;99.90
9497;DHT22;4786;51.270;4.456;2022-07-22T12:06:34;26.60;99.90
9497;DHT22;4786;51.270;4.456;2022-07-22T12:11:37;26.30;99.90
9497;DHT22;4786;51.270;4.456;2022-07-22T12:14:15;26.20;99.90
9497;DHT22;4786;51.270;4.456;2022-07-22T12:16:45;26.20;99.90
9497;DHT22;4786;51.270;4.456;2022-07-22T12:19:18;26.00;99.90
9497;DHT22;4786;51.270;4.456;2022-07-22T12:22:02;25.80;99.90
9497;DHT22;4786;51.270;4.456;2022-07-22T12:24:38;25.80;99.90
9497;DHT22;4786;51.270;4.456;2022-07-22T12:27:23;25.70;99.90
9497;DHT22;4786;51.270;4.456;2022-07-22T12:29:49;25.90;99.90
9497;DHT22;4786;51.270;4.456;2022-07-22T12:34:59;25.90;99.90
9497;DHT22;4786;51.270;4.456;2022-07-22T12:37:29;26.10;99.90
9497;DHT22;4786;51.270;4.456;2022-07-22T12:45:18;25.80;99.90
9497;DHT22;4786;51.270;4.456;2022-07-22T12:47:54;25.60;99.90
9497;DHT22;4786;51.270;4.456;2022-07-22T12:50:42;25.50;99.90
9497;DHT22;4786;51.270;4.456;2022-07-22T12:53:14;25.40;99.90
9497;DHT22;4786;51.270;4.456;2022-07-22T12:58:10;25.60;99.90
9497;DHT22;4786;51.270;4.456;2022-07-22T13:00:39;25.60;99.90
9497;DHT22;4786;51.270;4.456;2022-07-22T13:03:06;25.50;99.90
9497;DHT22;4786;51.270;4.456;2022-07-22T13:05:32;25.60;99.90
9497;DHT22;4786;51.270;4.456;2022-07-22T13:07:59;25.70;99.90
9497;DHT22;4786;51.270;4.456;2022-07-22T13:10:25;25.70;99.90
9497;DHT22;4786;51.270;4.456;2022-07-22T13:12:52;25.70;99.90
9497;DHT22;4786;51.270;4.456;2022-07-22T13:15:18;25.70;99.90
9497;DHT22;4786;51.270;4.456;2022-07-22T13:17:45;25.60;99.90
9497;DHT22;4786;51.270;4.456;2022-07-22T13:20:12;25.50;99.90
9497;DHT22;4786;51.270;4.456;2022-07-22T13:22:39;25.50;99.90
9497;DHT22;4786;51.270;4.456;2022-07-22T13:25:05;25.60;99.90
9497;DHT22;4786;51.270;4.456;2022-07-22T13:27:31;25.60;99.90
9497;DHT22;4786;51.270;4.456;2022-07-22T13:29:57;25.60;99.90
9497;DHT22;4786;51.270;4.456;2022-07-22T13:32:23;25.50;99.90
9497;DHT22;4786;51.270;4.456;2022-07-22T13:34:49;25.50;99.90
9497;DHT22;4786;51.270;4.456;2022-07-22T13:37:16;25.60;99.90
9497;DHT22;4786;51.270;4.456;2022-07-22T13:39:42;25.60;99.90
9497;DHT22;4786;51.270;4.456;2022-07-22T13:42:11;25.70;99.90
9497;DHT22;4786;51.270;4.456;2022-07-22T13:44:37;25.60;99.90
9497;DHT22;4786;51.270;4.456;2022-07-22T13:47:03;25.50;99.90
9497;DHT22;4786;51.270;4.456;2022-07-22T13:49:30;25.50;99.90
9497;DHT22;4786;51.270;4.456;2022-07-22T13:51:56;25.40;99.90
9497;DHT22;4786;51.270;4.456;2022-07-22T13:54:22;25.40;99.90
9497;DHT22;4786;51.270;4.456;2022-07-22T13:56:47;25.20;99.90
9497;DHT22;4786;51.270;4.456;2022-07-22T13:59:14;25.30;99.90
9497;DHT22;4786;51.270;4.456;2022-07-22T14:01:40;25.40;99.90
9497;DHT22;4786;51.270;4.456;2022-07-22T14:04:06;25.40;99.90
9497;DHT22;4786;51.270;4.456;2022-07-22T14:06:33;25.30;99.90
9497;DHT22;4786;51.270;4.456;2022-07-22T14:08:59;25.30;99.90
9497;DHT22;4786;51.270;4.456;2022-07-22T14:11:25;25.20;99.90
9497;DHT22;4786;51.270;4.456;2022-07-22T14:13:50;25.20;99.90
9497;DHT22;4786;51.270;4.456;2022-07-22T14:16:16;25.10;99.90
9497;DHT22;4786;51.270;4.456;2022-07-22T14:19:11;25.20;99.90
9497;DHT22;4786;51.270;4.456;2022-07-22T14:21:39;25.30;99.90
9497;DHT22;4786;51.270;4.456;2022-07-22T14:24:07;25.30;99.90
9497;DHT22;4786;51.270;4.456;2022-07-22T14:26:34;25.40;99.90
9497;DHT22;4786;51.270;4.456;2022-07-22T14:29:01;25.10;99.90
9497;DHT22;4786;51.270;4.456;2022-07-22T14:31:27;25.00;99.90
9497;DHT22;4786;51.270;4.456;2022-07-22T14:33:54;25.00;99.90
9497;DHT22;4786;51.270;4.456;2022-07-22T14:36:20;25.10;99.90
9497;DHT22;4786;51.270;4.456;2022-07-22T14:38:45;25.20;99.90
9497;DHT22;4786;51.270;4.456;2022-07-22T14:41:12;25.20;99.90
9497;DHT22;4786;51.270;4.456;2022-07-22T14:43:38;25.10;99.90
9497;DHT22;4786;51.270;4.456;2022-07-22T14:46:04;25.10;99.90
9497;DHT22;4786;51.270;4.456;2022-07-22T14:48:33;25.10;99.90
9497;DHT22;4786;51.270;4.456;2022-07-22T14:50:59;25.00;99.90
9497;DHT22;4786;51.270;4.456;2022-07-22T14:53:28;25.10;99.90
9497;DHT22;4786;51.270;4.456;2022-07-22T14:55:55;25.30;99.90
9497;DHT22;4786;51.270;4.456;2022-07-22T14:58:21;25.40;99.90
9497;DHT22;4786;51.270;4.456;2022-07-22T15:00:48;25.40;99.90
9497;DHT22;4786;51.270;4.456;2022-07-22T15:03:13;25.20;99.90
9497;DHT22;4786;51.270;4.456;2022-07-22T15:05:39;25.20;99.90
9497;DHT22;4786;51.270;4.456;2022-07-22T15:08:07;25.30;99.90
9497;DHT22;4786;51.270;4.456;2022-07-22T15:10:33;25.40;99.90
9497;DHT22;4786;51.270;4.456;2022-07-22T15:12:59;25.40;99.90
9497;DHT22;4786;51.270;4.456;2022-07-22T15:15:24;25.30;99.90
9497;DHT22;4786;51.270;4.456;2022-07-22T15:17:51;25.20;99.90
9497;DHT22;4786;51.270;4.456;2022-07-22T15:20:17;25.10;99.90
9497;DHT22;4786;51.270;4.456;2022-07-22T15:22:43;25.00;99.90
9497;DHT22;4786;51.270;4.456;2022-07-22T15:25:10;25.10;99.90
9497;DHT22;4786;51.270;4.456;2022-07-22T15:27:36;25.20;99.90
9497;DHT22;4786;51.270;4.456;2022-07-22T15:30:08;25.20;99.90
9497;DHT22;4786;51.270;4.456;2022-07-22T15:32:35;25.10;99.90
9497;DHT22;4786;51.270;4.456;2022-07-22T15:35:02;25.10;99.90
9497;DHT22;4786;51.270;4.456;2022-07-22T15:37:27;25.10;99.90
9497;DHT22;4786;51.270;4.456;2022-07-22T15:39:54;25.10;99.90
9497;DHT22;4786;51.270;4.456;2022-07-22T15:42:19;24.90;99.90
9497;DHT22;4786;51.270;4.456;2022-07-22T15:44:46;25.00;99.90
9497;DHT22;4786;51.270;4.456;2022-07-22T15:47:12;25.00;99.90
9497;DHT22;4786;51.270;4.456;2022-07-22T15:49:38;25.00;99.90
9497;DHT22;4786;51.270;4.456;2022-07-22T15:52:04;25.00;99.90
9497;DHT22;4786;51.270;4.456;2022-07-22T15:54:31;25.10;99.90
9497;DHT22;4786;51.270;4.456;2022-07-22T15:56:57;25.10;99.90
9497;DHT22;4786;51.270;4.456;2022-07-22T15:59:41;25.00;99.90
9497;DHT22;4786;51.270;4.456;2022-07-22T16:02:08;25.10;99.90
9497;DHT22;4786;51.270;4.456;2022-07-22T16:04:34;25.00;99.90
9497;DHT22;4786;51.270;4.456;2022-07-22T16:07:00;25.00;99.90
9497;DHT22;4786;51.270;4.456;2022-07-22T16:09:25;25.10;99.90
9497;DHT22;4786;51.270;4.456;2022-07-22T16:11:51;25.00;99.90
9497;DHT22;4786;51.270;4.456;2022-07-22T16:14:17;25.00;99.90
9497;DHT22;4786;51.270;4.456;2022-07-22T16:16:43;24.80;99.90
9497;DHT22;4786;51.270;4.456;2022-07-22T16:19:09;24.60;99.90
9497;DHT22;4786;51.270;4.456;2022-07-22T16:21:35;24.40;99.90
9497;DHT22;4786;51.270;4.456;2022-07-22T16:24:01;24.30;99.90
9497;DHT22;4786;51.270;4.456;2022-07-22T16:26:27;24.30;99.90
9497;DHT22;4786;51.270;4.456;2022-07-22T16:28:53;24.20;99.90